createdAt,value
2019-01-20T00:01:12.667Z,6.60
2019-01-20T00:03:42.697Z,5.77
2019-01-20T00:06:12.710Z,7.00
2019-01-20T00:08:42.759Z,7.50
2019-01-20T00:11:16.753Z,6.20
2019-01-20T00:13:44.583Z,5.67
2019-01-20T00:16:14.764Z,8.43
2019-01-20T00:18:44.801Z,8.87
2019-01-20T00:21:14.839Z,7.47
2019-01-20T00:23:44.951Z,6.57
2019-01-20T00:26:15.035Z,5.93
2019-01-20T00:28:45.114Z,7.43
2019-01-20T00:31:15.146Z,5.90
2019-01-20T00:33:45.190Z,7.50
2019-01-20T00:36:15.282Z,7.07
2019-01-20T00:38:45.371Z,5.77
2019-01-20T00:41:15.432Z,6.50
2019-01-20T00:43:45.509Z,7.07
2019-01-20T00:46:15.576Z,8.30
2019-01-20T00:48:45.691Z,7.37
2019-01-20T00:51:15.900Z,6.27
2019-01-20T00:53:46.004Z,7.50
2019-01-20T00:56:16.038Z,6.10
2019-01-20T00:58:46.061Z,7.77
2019-01-20T01:01:16.120Z,5.43
2019-01-20T01:03:46.201Z,6.13
2019-01-20T01:06:17.458Z,5.50
2019-01-20T01:08:47.448Z,6.17
2019-01-20T01:11:17.500Z,5.70
2019-01-20T01:13:47.535Z,7.13
2019-01-20T01:16:17.564Z,7.17
2019-01-20T01:18:47.634Z,6.20
2019-01-20T01:21:17.824Z,6.87
2019-01-20T01:23:47.934Z,6.47
2019-01-20T01:26:17.964Z,6.17
2019-01-20T01:28:47.994Z,6.87
2019-01-20T01:31:18.995Z,7.13
2019-01-20T01:33:49.010Z,6.83
2019-01-20T01:36:19.063Z,5.80
2019-01-20T01:38:49.107Z,6.77
2019-01-20T01:41:19.124Z,6.87
2019-01-20T01:43:49.155Z,8.93
2019-01-20T01:46:19.201Z,4.53
2019-01-20T01:48:49.300Z,7.53
2019-01-20T01:51:19.369Z,5.67
2019-01-20T01:53:49.476Z,4.67
2019-01-20T01:56:19.645Z,6.43
2019-01-20T01:58:49.663Z,6.83
2019-01-20T02:01:19.695Z,5.37
2019-01-20T02:03:49.813Z,5.30
2019-01-20T02:06:19.889Z,6.33
2019-01-20T02:08:49.984Z,5.77
2019-01-20T02:11:20.065Z,7.17
2019-01-20T02:13:50.101Z,5.77
2019-01-20T02:16:20.161Z,8.43
2019-01-20T02:18:50.271Z,6.50
2019-01-20T02:21:20.350Z,7.27
2019-01-20T02:23:50.442Z,7.90
2019-01-20T02:26:20.463Z,7.83
2019-01-20T02:28:50.519Z,8.63
2019-01-20T02:31:20.571Z,8.97
2019-01-20T02:33:50.585Z,11.37
2019-01-20T02:36:20.645Z,7.80
2019-01-20T02:38:50.715Z,10.50
2019-01-20T02:41:20.752Z,7.87
2019-01-20T02:43:50.822Z,7.70
2019-01-20T02:46:20.885Z,8.57
2019-01-20T02:48:50.957Z,10.30
2019-01-20T02:51:21.060Z,8.93
2019-01-20T02:53:51.162Z,6.93
2019-01-20T02:56:21.197Z,8.30
2019-01-20T02:58:51.341Z,8.87
2019-01-20T03:01:21.418Z,12.57
2019-01-20T03:03:51.571Z,7.63
2019-01-20T03:06:21.885Z,8.37
2019-01-20T03:08:51.933Z,8.10
2019-01-20T03:11:22.094Z,6.00
2019-01-20T03:13:52.201Z,7.70
2019-01-20T03:16:22.297Z,5.80
2019-01-20T03:18:52.759Z,7.10
2019-01-20T03:21:22.885Z,6.30
2019-01-20T03:23:52.911Z,7.00
2019-01-20T03:26:22.953Z,5.80
2019-01-20T03:28:53.006Z,7.13
2019-01-20T03:31:23.127Z,7.63
2019-01-20T03:33:53.283Z,9.13
2019-01-20T03:36:23.345Z,9.43
2019-01-20T03:38:53.419Z,7.43
2019-01-20T03:41:23.444Z,8.07
2019-01-20T03:43:53.524Z,8.87
2019-01-20T03:46:23.644Z,7.73
2019-01-20T03:48:53.753Z,10.13
2019-01-20T03:51:23.877Z,8.03
2019-01-20T03:53:53.968Z,8.00
2019-01-20T03:56:24.011Z,7.90
2019-01-20T03:58:54.103Z,9.90
2019-01-20T04:01:24.334Z,8.37
2019-01-20T04:03:54.426Z,8.33
2019-01-20T04:06:24.502Z,8.33
2019-01-20T04:08:54.612Z,7.60
2019-01-20T04:11:24.862Z,7.57
2019-01-20T04:13:54.923Z,7.60
2019-01-20T04:16:24.997Z,7.37
2019-01-20T04:18:55.043Z,7.80
2019-01-20T04:21:25.178Z,8.47
2019-01-20T04:23:55.241Z,8.57
2019-01-20T04:26:25.275Z,8.53
2019-01-20T04:28:55.317Z,11.07
2019-01-20T04:31:25.407Z,10.37
2019-01-20T04:33:55.433Z,6.00
2019-01-20T04:36:25.559Z,6.90
2019-01-20T04:38:55.641Z,6.30
2019-01-20T04:41:25.752Z,5.73
2019-01-20T04:43:55.835Z,5.37
2019-01-20T04:46:25.978Z,4.90
2019-01-20T04:48:56.075Z,8.83
2019-01-20T04:51:26.152Z,8.13
2019-01-20T04:53:56.290Z,7.50
2019-01-20T04:56:26.391Z,5.50
2019-01-20T04:58:56.429Z,5.37
2019-01-20T05:01:26.560Z,5.87
2019-01-20T05:03:56.604Z,6.37
2019-01-20T05:06:26.752Z,7.23
2019-01-20T05:08:56.781Z,6.73
2019-01-20T05:11:26.813Z,7.17
2019-01-20T05:13:56.841Z,6.33
2019-01-20T05:16:26.920Z,8.77
2019-01-20T05:18:56.986Z,4.97
2019-01-20T05:21:27.026Z,7.23
2019-01-20T05:23:57.046Z,8.33
2019-01-20T05:26:27.061Z,6.33
2019-01-20T05:28:57.154Z,7.10
2019-01-20T05:31:27.254Z,6.43
2019-01-20T05:33:57.407Z,5.83
2019-01-20T05:36:28.394Z,6.43
2019-01-20T05:38:58.437Z,6.10
2019-01-20T05:41:28.475Z,7.17
2019-01-20T05:43:58.546Z,6.23
2019-01-20T05:46:28.599Z,8.90
2019-01-20T05:48:58.690Z,8.07
2019-01-20T05:51:28.833Z,8.53
2019-01-20T05:53:59.103Z,8.70
2019-01-20T05:56:30.036Z,9.07
2019-01-20T05:59:00.197Z,7.87
2019-01-20T06:01:30.302Z,7.70
2019-01-20T06:04:00.365Z,7.53
2019-01-20T06:06:30.502Z,8.03
2019-01-20T06:09:00.563Z,11.10
2019-01-20T06:11:31.289Z,8.10
2019-01-20T06:14:03.421Z,8.10
2019-01-20T06:16:33.475Z,6.93
2019-01-20T06:19:03.551Z,7.67
2019-01-20T06:21:33.621Z,8.43
2019-01-20T06:24:03.880Z,9.83
2019-01-20T06:26:33.977Z,7.30
2019-01-20T06:29:04.517Z,8.27
2019-01-20T06:31:34.637Z,9.43
2019-01-20T06:34:04.761Z,9.97
2019-01-20T06:36:34.855Z,8.73
2019-01-20T06:39:07.993Z,7.40
2019-01-20T06:41:38.236Z,7.73
2019-01-20T06:44:08.426Z,7.33
2019-01-20T06:46:38.694Z,10.33
2019-01-20T06:49:08.730Z,7.83
2019-01-20T06:51:38.911Z,9.43
2019-01-20T06:54:08.969Z,10.30
2019-01-20T06:56:39.034Z,9.23
2019-01-20T06:59:09.138Z,9.83
2019-01-20T07:01:40.236Z,9.93
2019-01-20T07:04:10.377Z,8.63
2019-01-20T07:06:40.422Z,8.30
2019-01-20T07:09:10.484Z,10.73
2019-01-20T07:11:40.606Z,11.83
2019-01-20T07:14:10.734Z,9.50
2019-01-20T07:16:40.924Z,10.97
2019-01-20T07:19:11.098Z,8.37
2019-01-20T07:21:41.235Z,10.77
2019-01-20T07:24:11.741Z,11.40
2019-01-20T07:26:42.026Z,8.20
2019-01-20T07:29:15.423Z,9.53
2019-01-20T07:31:45.597Z,8.43
2019-01-20T07:34:16.559Z,7.73
2019-01-20T07:36:46.702Z,8.10
2019-01-20T07:39:16.900Z,8.93
2019-01-20T07:41:47.144Z,8.67
2019-01-20T07:44:17.246Z,7.97
2019-01-20T07:46:47.296Z,9.87
2019-01-20T07:49:17.844Z,7.50
2019-01-20T07:51:48.261Z,7.37
2019-01-20T07:54:18.580Z,7.70
2019-01-20T07:56:48.719Z,8.03
2019-01-20T07:59:18.920Z,10.20
2019-01-20T08:01:48.953Z,8.37
2019-01-20T08:04:19.093Z,9.00
2019-01-20T08:06:50.458Z,8.87
2019-01-20T08:09:21.331Z,10.40
2019-01-20T08:11:51.468Z,6.73
2019-01-20T08:14:22.745Z,8.60
2019-01-20T08:16:52.885Z,11.70
2019-01-20T08:19:23.046Z,10.13
2019-01-20T08:21:53.125Z,7.53
2019-01-20T08:24:23.262Z,7.93
2019-01-20T08:26:53.436Z,11.00
2019-01-20T08:29:23.531Z,12.73
2019-01-20T08:31:53.620Z,9.73
2019-01-20T08:34:23.738Z,7.57
2019-01-20T08:36:54.949Z,11.00
2019-01-20T08:39:25.112Z,9.63
2019-01-20T08:41:55.191Z,10.27
2019-01-20T08:44:30.023Z,9.77
2019-01-20T08:47:31.028Z,11.90
2019-01-20T08:50:01.206Z,11.90
2019-01-20T08:52:32.439Z,9.77
2019-01-20T08:55:02.713Z,9.73
2019-01-20T08:57:32.890Z,9.83
2019-01-20T09:00:03.086Z,11.10
2019-01-20T09:02:35.413Z,10.40
2019-01-20T09:05:06.347Z,10.77
2019-01-20T09:07:38.724Z,8.70
2019-01-20T09:10:17.485Z,10.13
2019-01-20T09:12:48.085Z,10.30
2019-01-20T09:15:18.604Z,11.80
2019-01-20T09:17:50.519Z,12.03
2019-01-20T09:20:21.117Z,10.67
2019-01-20T09:22:51.180Z,11.40
2019-01-20T09:25:22.251Z,9.63
2019-01-20T09:27:52.271Z,9.67
2019-01-20T09:30:22.723Z,10.07
2019-01-20T09:32:52.734Z,11.50
2019-01-20T09:35:22.761Z,8.83
2019-01-20T09:37:58.319Z,9.40
2019-01-20T09:40:28.429Z,11.60
2019-01-20T09:42:58.455Z,9.40
2019-01-20T09:45:30.347Z,11.80
2019-01-20T09:48:00.665Z,11.90
2019-01-20T09:50:30.806Z,10.47
2019-01-20T09:53:00.801Z,14.67
2019-01-20T09:55:30.823Z,11.00
2019-01-20T09:58:00.818Z,10.80
2019-01-20T10:00:31.708Z,11.17
2019-01-20T10:03:02.744Z,10.57
2019-01-20T10:05:32.751Z,12.57
2019-01-20T10:08:02.818Z,11.13
2019-01-20T10:10:32.848Z,11.63
2019-01-20T10:13:02.866Z,10.33
2019-01-20T10:15:32.926Z,10.50
2019-01-20T10:18:02.968Z,11.10
2019-01-20T10:20:33.327Z,12.33
2019-01-20T10:23:03.475Z,10.20
2019-01-20T10:25:33.697Z,10.07
2019-01-20T10:28:04.269Z,11.57
2019-01-20T10:30:36.059Z,10.63
2019-01-20T10:33:06.167Z,10.23
2019-01-20T10:35:38.578Z,10.20
2019-01-20T10:38:10.049Z,11.37
2019-01-20T10:40:40.120Z,10.57
2019-01-20T10:43:10.232Z,11.30
2019-01-20T10:45:40.236Z,13.40
2019-01-20T10:48:10.443Z,12.30
2019-01-20T10:50:40.548Z,15.17
2019-01-20T10:53:10.540Z,13.13
2019-01-20T10:55:40.540Z,11.63
2019-01-20T10:58:10.559Z,11.43
2019-01-20T11:00:41.714Z,11.17
2019-01-20T11:03:11.832Z,11.87
2019-01-20T11:05:42.131Z,11.53
2019-01-20T11:08:12.303Z,12.93
2019-01-20T11:10:42.304Z,12.73
2019-01-20T11:13:12.390Z,10.73
2019-01-20T11:15:42.432Z,13.50
2019-01-20T11:18:12.476Z,14.10
2019-01-20T11:20:42.478Z,12.10
2019-01-20T11:23:12.558Z,14.03
2019-01-20T11:25:44.853Z,12.67
2019-01-20T11:28:15.251Z,13.80
2019-01-20T11:30:45.264Z,13.00
2019-01-20T11:33:15.358Z,12.37
2019-01-20T11:35:45.492Z,14.00
2019-01-20T11:38:15.496Z,11.97
2019-01-20T11:40:45.500Z,13.67
2019-01-20T11:43:15.591Z,14.07
2019-01-20T11:45:45.803Z,13.07
2019-01-20T11:48:15.836Z,10.93
2019-01-20T11:50:45.874Z,12.33
2019-01-20T11:53:16.016Z,14.40
2019-01-20T11:55:46.144Z,13.67
2019-01-20T11:58:16.253Z,11.23
2019-01-20T12:00:46.264Z,13.53
2019-01-20T12:03:16.281Z,11.27
2019-01-20T12:05:47.298Z,12.60
2019-01-20T12:08:17.300Z,15.87
2019-01-20T12:10:47.338Z,12.57
2019-01-20T12:13:20.700Z,12.80
2019-01-20T12:15:50.727Z,14.07
2019-01-20T12:18:20.755Z,12.30
2019-01-20T12:20:50.771Z,11.47
2019-01-20T12:23:20.773Z,13.57
2019-01-20T12:25:50.785Z,12.67
2019-01-20T12:28:20.903Z,13.00
2019-01-20T12:30:50.940Z,10.63
2019-01-20T12:33:21.012Z,14.23
2019-01-20T12:35:51.022Z,15.27
2019-01-20T12:38:21.045Z,15.23
2019-01-20T12:40:51.071Z,14.73
2019-01-20T12:43:23.936Z,14.87
2019-01-20T12:45:53.969Z,15.23
2019-01-20T12:48:24.152Z,13.67
2019-01-20T12:50:54.217Z,12.40
2019-01-20T12:53:24.993Z,11.53
2019-01-20T12:55:55.027Z,12.47
2019-01-20T12:58:25.083Z,11.73
2019-01-20T13:00:55.127Z,10.53
2019-01-20T13:03:25.151Z,8.63
2019-01-20T13:05:55.197Z,10.63
2019-01-20T13:08:25.232Z,12.73
2019-01-20T13:10:55.249Z,10.00
2019-01-20T13:13:25.237Z,11.70
2019-01-20T13:15:55.267Z,10.23
2019-01-20T13:18:25.285Z,10.90
2019-01-20T13:20:55.385Z,10.27
2019-01-20T13:23:25.411Z,12.00
2019-01-20T13:25:55.465Z,12.83
2019-01-20T13:28:25.538Z,10.03
2019-01-20T13:30:55.626Z,9.17
2019-01-20T13:33:25.703Z,10.53
2019-01-20T13:35:55.737Z,8.87
2019-01-20T13:38:26.779Z,8.53
2019-01-20T13:41:13.591Z,9.87
2019-01-20T13:43:43.611Z,9.23
2019-01-20T13:46:13.755Z,10.47
2019-01-20T13:48:43.795Z,11.67
2019-01-20T13:51:13.905Z,8.00
2019-01-20T13:53:44.664Z,9.07
2019-01-20T13:56:14.708Z,8.77
2019-01-20T13:58:44.807Z,11.87
2019-01-20T14:01:14.847Z,9.20
2019-01-20T14:03:44.920Z,10.57
2019-01-20T14:06:15.000Z,10.60
2019-01-20T14:08:45.027Z,10.47
2019-01-20T14:11:15.050Z,8.90
2019-01-20T14:13:45.054Z,8.60
2019-01-20T14:16:16.119Z,9.13
2019-01-20T14:18:46.139Z,10.80
2019-01-20T14:21:16.183Z,9.17
2019-01-20T14:23:46.348Z,9.80
2019-01-20T14:26:16.373Z,9.90
2019-01-20T14:28:46.493Z,9.50
2019-01-20T14:31:16.525Z,9.33
2019-01-20T14:33:46.607Z,9.27
2019-01-20T14:36:17.603Z,8.87
2019-01-20T14:38:47.607Z,9.53
2019-01-20T14:41:17.646Z,10.23
2019-01-20T14:43:47.652Z,9.80
2019-01-20T14:46:17.673Z,12.10
2019-01-20T14:48:47.687Z,11.67
2019-01-20T14:51:17.794Z,8.33
2019-01-20T14:53:47.851Z,10.00
2019-01-20T14:56:17.878Z,8.43
2019-01-20T14:58:47.974Z,9.77
2019-01-20T15:01:18.023Z,9.43
2019-01-20T15:03:48.048Z,9.97
2019-01-20T15:06:18.157Z,10.17
2019-01-20T15:08:48.251Z,9.93
2019-01-20T15:11:18.269Z,12.87
2019-01-20T15:13:48.303Z,12.33
2019-01-20T15:16:18.492Z,12.33
2019-01-20T15:18:48.502Z,10.90
2019-01-20T15:21:18.538Z,10.00
2019-01-20T15:23:48.619Z,10.13
2019-01-20T15:26:18.684Z,11.03
2019-01-20T15:28:48.751Z,11.80
2019-01-20T15:31:18.850Z,11.17
2019-01-20T15:33:49.945Z,10.80
2019-01-20T15:36:20.001Z,10.67
2019-01-20T15:38:50.028Z,12.57
2019-01-20T15:41:20.002Z,12.27
2019-01-20T15:43:50.078Z,12.53
2019-01-20T15:46:20.269Z,14.73
2019-01-20T15:48:50.275Z,14.50
2019-01-20T15:51:20.340Z,13.40
2019-01-20T15:53:50.357Z,10.53
2019-01-20T15:56:20.391Z,12.43
2019-01-20T15:58:50.395Z,13.57
2019-01-20T16:01:20.446Z,13.20
2019-01-20T16:03:50.481Z,15.33
2019-01-20T16:06:20.557Z,11.47
2019-01-20T16:08:50.565Z,13.20
2019-01-20T16:11:20.578Z,13.17
2019-01-20T16:13:50.608Z,10.00
2019-01-20T16:16:20.623Z,14.10
2019-01-20T16:18:50.629Z,13.73
2019-01-20T16:21:20.652Z,11.93
2019-01-20T16:23:50.712Z,12.90
2019-01-20T16:26:20.792Z,15.07
2019-01-20T16:28:50.801Z,11.53
2019-01-20T16:31:20.847Z,17.20
2019-01-20T16:33:50.853Z,12.00
2019-01-20T16:36:20.893Z,13.13
2019-01-20T16:38:50.992Z,10.60
2019-01-20T16:41:21.008Z,11.03
2019-01-20T16:43:51.059Z,15.80
2019-01-20T16:46:21.081Z,13.10
2019-01-20T16:48:51.135Z,14.57
2019-01-20T16:51:21.196Z,12.27
2019-01-20T16:53:51.194Z,13.97
2019-01-20T16:56:21.823Z,16.13
2019-01-20T16:58:51.965Z,14.03
2019-01-20T17:01:22.472Z,13.43
2019-01-20T17:03:52.514Z,15.10
2019-01-20T17:06:22.580Z,14.67
2019-01-20T17:08:52.609Z,13.57
2019-01-20T17:11:22.611Z,14.53
2019-01-20T17:13:52.641Z,14.30
2019-01-20T17:16:22.668Z,12.93
2019-01-20T17:18:52.701Z,15.53
2019-01-20T17:21:22.706Z,25.70
2019-01-20T17:23:52.739Z,21.97
2019-01-20T17:26:22.790Z,19.00
2019-01-20T17:28:52.868Z,17.37
2019-01-20T17:31:22.876Z,18.67
2019-01-20T17:33:52.915Z,17.97
2019-01-20T17:36:22.919Z,21.80
2019-01-20T17:38:52.959Z,20.97
2019-01-20T17:41:22.951Z,19.33
2019-01-20T17:43:52.957Z,19.30
2019-01-20T17:46:22.989Z,20.47
2019-01-20T17:48:53.000Z,17.27
2019-01-20T17:51:23.003Z,19.47
2019-01-20T17:53:53.040Z,20.73
2019-01-20T17:56:23.710Z,19.67
2019-01-20T17:58:54.155Z,16.77
2019-01-20T18:01:24.851Z,20.10
2019-01-20T18:03:54.915Z,15.20
2019-01-20T18:06:24.973Z,18.33
2019-01-20T18:08:55.010Z,22.53
2019-01-20T18:11:25.026Z,19.13
2019-01-20T18:13:55.064Z,19.60
2019-01-20T18:16:25.134Z,17.87
2019-01-20T18:18:55.240Z,21.17
2019-01-20T18:21:25.343Z,20.87
2019-01-20T18:23:55.444Z,21.67
2019-01-20T18:26:25.534Z,19.50
2019-01-20T18:28:55.556Z,20.57
2019-01-20T18:31:25.608Z,22.83
2019-01-20T18:33:55.619Z,25.77
2019-01-20T18:36:25.652Z,27.17
2019-01-20T18:38:55.667Z,23.90
2019-01-20T18:41:25.667Z,26.10
2019-01-20T18:43:55.708Z,23.03
2019-01-20T18:46:25.780Z,27.37
2019-01-20T18:48:55.797Z,23.07
2019-01-20T18:51:25.845Z,24.23
2019-01-20T18:53:55.841Z,22.97
2019-01-20T18:56:25.866Z,27.37
2019-01-20T18:58:55.868Z,27.33
2019-01-20T19:01:27.017Z,27.10
2019-01-20T19:03:57.236Z,27.20
2019-01-20T19:06:27.337Z,22.60
2019-01-20T19:08:57.373Z,28.53
2019-01-20T19:11:27.391Z,30.07
2019-01-20T19:13:57.404Z,26.07
2019-01-20T19:16:27.460Z,28.13
2019-01-20T19:18:57.472Z,26.37
2019-01-20T19:21:27.517Z,26.40
2019-01-20T19:23:57.568Z,29.37
2019-01-20T19:26:27.653Z,26.87
2019-01-20T19:29:02.970Z,22.60
2019-01-20T19:31:29.407Z,24.90
2019-01-20T19:33:59.425Z,26.50
2019-01-20T19:36:29.434Z,24.10
2019-01-20T19:38:59.447Z,26.33
2019-01-20T19:41:29.487Z,29.27
2019-01-20T19:43:59.521Z,32.73
2019-01-20T19:46:29.545Z,31.27
2019-01-20T19:48:59.593Z,29.00
2019-01-20T19:51:29.600Z,30.43
2019-01-20T19:53:59.621Z,30.27
2019-01-20T19:56:29.675Z,26.50
2019-01-20T19:58:59.772Z,31.47
2019-01-20T20:01:31.185Z,31.63
2019-01-20T20:04:01.163Z,31.20
2019-01-20T20:06:31.229Z,31.03
2019-01-20T20:09:01.343Z,32.23
2019-01-20T20:11:32.999Z,29.90
2019-01-20T20:14:03.018Z,30.27
2019-01-20T20:16:33.058Z,29.17
2019-01-20T20:19:03.067Z,27.83
2019-01-20T20:21:33.079Z,31.30
2019-01-20T20:24:03.095Z,32.77
2019-01-20T20:26:33.118Z,28.57
2019-01-20T20:29:03.147Z,28.50
2019-01-20T20:31:33.199Z,28.83
2019-01-20T20:34:03.164Z,28.27
2019-01-20T20:36:33.202Z,27.40
2019-01-20T20:39:03.282Z,30.23
2019-01-20T20:41:34.928Z,28.33
2019-01-20T20:44:04.963Z,25.63
2019-01-20T20:46:35.012Z,26.87
2019-01-20T20:49:05.027Z,29.07
2019-01-20T20:51:35.050Z,26.90
2019-01-20T20:54:05.062Z,25.37
2019-01-20T20:56:35.095Z,27.60
2019-01-20T20:59:05.132Z,25.10
2019-01-20T21:01:35.155Z,28.73
2019-01-20T21:04:05.217Z,25.73
2019-01-20T21:06:35.240Z,25.97
2019-01-20T21:09:08.374Z,25.00
2019-01-20T21:11:38.456Z,28.87
2019-01-20T21:14:08.489Z,26.30
2019-01-20T21:16:38.532Z,23.70
2019-01-20T21:19:08.616Z,26.20
2019-01-20T21:21:38.668Z,27.60
2019-01-20T21:24:08.735Z,28.40
2019-01-20T21:26:38.759Z,26.60
2019-01-20T21:29:09.482Z,25.73
2019-01-20T21:31:39.610Z,24.97
2019-01-20T21:34:09.627Z,25.47
2019-01-20T21:36:39.733Z,21.87
2019-01-20T21:39:10.058Z,25.13
2019-01-20T21:41:40.090Z,24.83
2019-01-20T21:44:10.104Z,25.50
2019-01-20T21:46:45.308Z,23.47
2019-01-20T21:49:11.880Z,26.07
2019-01-20T21:51:41.933Z,25.10
2019-01-20T21:54:12.911Z,23.33
2019-01-20T21:56:42.969Z,24.07
2019-01-20T21:59:12.975Z,23.40
2019-01-20T22:01:43.010Z,20.87
2019-01-20T22:04:13.080Z,24.80
2019-01-20T22:06:43.266Z,21.00
2019-01-20T22:09:13.324Z,21.47
2019-01-20T22:11:43.521Z,20.90
2019-01-20T22:14:13.686Z,26.33
2019-01-20T22:16:43.702Z,22.20
2019-01-20T22:19:13.777Z,20.23
2019-01-20T22:21:43.886Z,26.73
2019-01-20T22:24:13.892Z,20.03
2019-01-20T22:26:44.134Z,22.60
2019-01-20T22:29:14.147Z,26.43
2019-01-20T22:31:46.243Z,25.10
2019-01-20T22:34:16.271Z,21.00
2019-01-20T22:36:46.291Z,26.13
2019-01-20T22:39:16.409Z,23.40
2019-01-20T22:41:46.500Z,24.13
2019-01-20T22:44:16.582Z,26.10
2019-01-20T22:46:46.624Z,28.37
2019-01-20T22:49:16.686Z,24.17
2019-01-20T22:51:46.699Z,22.17
2019-01-20T22:54:16.760Z,24.90
2019-01-20T22:56:46.797Z,23.10
2019-01-20T22:59:16.851Z,26.90
2019-01-20T23:01:46.870Z,20.90
2019-01-20T23:04:16.985Z,20.70
2019-01-20T23:06:47.004Z,25.60
2019-01-20T23:09:17.079Z,25.03
2019-01-20T23:11:47.123Z,23.77
2019-01-20T23:14:17.259Z,22.33
2019-01-20T23:16:47.286Z,21.33
2019-01-20T23:19:17.310Z,19.13
2019-01-20T23:21:47.340Z,24.07
2019-01-20T23:24:17.381Z,20.40
2019-01-20T23:26:47.509Z,21.00
2019-01-20T23:29:17.532Z,20.67
2019-01-20T23:31:47.593Z,20.80
2019-01-20T23:34:17.606Z,21.07
2019-01-20T23:36:47.668Z,21.03
2019-01-20T23:39:17.699Z,21.60
2019-01-20T23:41:47.762Z,20.30
2019-01-20T23:44:17.816Z,20.63
2019-01-20T23:46:47.859Z,20.50
2019-01-20T23:49:17.892Z,23.33
2019-01-20T23:51:47.951Z,22.00
2019-01-20T23:54:17.951Z,23.10
2019-01-20T23:56:47.991Z,22.47
2019-01-20T23:59:18.035Z,23.47
